createdAt,value
2022-10-14T00:01:13.690Z,18.83
2022-10-14T00:06:13.255Z,14.17
2022-10-14T00:11:21.060Z,21.30
2022-10-14T00:16:26.832Z,17.90
2022-10-14T00:26:59.476Z,18.80
2022-10-14T00:32:06.808Z,18.93
2022-10-14T00:37:00.922Z,15.37
2022-10-14T00:42:36.789Z,18.87
2022-10-14T00:47:52.115Z,15.47
2022-10-14T00:53:00.004Z,15.63
2022-10-14T00:57:44.149Z,16.83
2022-10-14T01:02:34.815Z,15.07
2022-10-14T01:07:40.684Z,15.07
2022-10-14T01:13:11.554Z,15.87
2022-10-14T01:18:12.478Z,15.00
2022-10-14T01:23:35.824Z,13.83
2022-10-14T01:28:36.682Z,11.47
2022-10-14T01:33:40.876Z,12.60
2022-10-14T01:38:35.144Z,10.67
2022-10-14T01:43:34.275Z,11.47
2022-10-14T01:48:25.688Z,11.83
2022-10-14T01:53:44.606Z,10.97
2022-10-14T01:59:04.350Z,11.77
2022-10-14T02:03:50.468Z,13.03
2022-10-14T02:08:58.888Z,12.07
2022-10-14T02:14:15.454Z,10.53
2022-10-14T02:19:21.222Z,12.30
2022-10-14T02:24:38.184Z,14.30
2022-10-14T02:29:27.705Z,13.33
2022-10-14T02:34:17.380Z,11.17
2022-10-14T02:39:05.075Z,11.13
2022-10-14T02:44:11.202Z,13.23
2022-10-14T02:49:30.286Z,13.87
2022-10-14T02:55:01.710Z,10.13
2022-10-14T03:00:10.479Z,10.73
2022-10-14T03:04:54.156Z,10.83
2022-10-14T03:09:41.526Z,12.90
2022-10-14T03:14:29.408Z,10.87
2022-10-14T03:19:19.133Z,11.03
2022-10-14T03:24:06.844Z,7.73
2022-10-14T03:28:54.441Z,8.77
2022-10-14T03:33:43.636Z,10.60
2022-10-14T03:38:31.354Z,9.73
2022-10-14T03:43:17.261Z,9.80
2022-10-14T03:49:00.373Z,12.63
2022-10-14T03:53:45.663Z,8.80
2022-10-14T03:58:50.549Z,13.07
2022-10-14T04:03:35.544Z,14.60
2022-10-14T04:08:22.100Z,11.63
2022-10-14T04:13:29.481Z,14.43
2022-10-14T04:18:29.650Z,10.80
2022-10-14T04:34:46.525Z,10.07
2022-10-14T04:40:04.793Z,10.00
2022-10-14T04:45:15.721Z,9.90
2022-10-14T04:50:43.671Z,12.23
2022-10-14T04:55:49.794Z,15.53
2022-10-14T05:00:40.933Z,11.77
2022-10-14T05:05:47.796Z,12.60
2022-10-14T05:10:50.464Z,12.60
2022-10-14T05:16:07.083Z,14.70
2022-10-14T05:22:03.346Z,11.53
2022-10-14T05:27:33.788Z,11.30
2022-10-14T05:32:40.839Z,14.33
2022-10-14T05:48:28.341Z,13.63
2022-10-14T05:53:22.707Z,12.23
2022-10-14T05:58:48.704Z,14.27
2022-10-14T06:04:09.145Z,13.50
2022-10-14T06:09:11.747Z,10.97
2022-10-14T06:14:34.878Z,12.20
2022-10-14T06:19:47.061Z,13.90
2022-10-14T06:30:59.240Z,17.30
2022-10-14T06:36:08.649Z,13.17
2022-10-14T06:41:07.245Z,15.17
2022-10-14T06:46:15.957Z,12.97
2022-10-14T06:52:27.645Z,12.93
2022-10-14T06:57:10.601Z,12.53
2022-10-14T07:02:12.738Z,11.23
2022-10-14T07:07:23.591Z,12.03
2022-10-14T07:13:13.869Z,10.77
2022-10-14T07:18:17.120Z,13.17
2022-10-14T07:28:43.909Z,12.50
2022-10-14T07:44:27.232Z,10.03
2022-10-14T07:50:00.735Z,13.57
2022-10-14T08:00:27.261Z,10.07
2022-10-14T08:11:07.959Z,11.37
2022-10-14T08:16:40.106Z,8.40
2022-10-14T08:22:30.596Z,7.63
2022-10-14T08:33:13.652Z,7.37
2022-10-14T08:38:33.247Z,10.23
2022-10-14T08:43:49.818Z,7.57
2022-10-14T08:49:45.238Z,5.20
2022-10-14T08:55:22.231Z,8.70
2022-10-14T09:06:31.448Z,6.43
2022-10-14T09:11:51.897Z,5.57
2022-10-14T09:22:43.094Z,5.30
2022-10-14T09:28:09.455Z,4.27
2022-10-14T09:33:30.338Z,5.20
2022-10-14T09:38:34.980Z,5.47
2022-10-14T09:43:34.685Z,5.50
2022-10-14T09:49:15.067Z,4.50
2022-10-14T09:59:54.216Z,4.00
2022-10-14T10:05:06.826Z,3.50
2022-10-14T10:10:33.151Z,3.80
2022-10-14T10:15:40.345Z,4.43
2022-10-14T10:21:09.761Z,3.37
2022-10-14T10:26:17.033Z,4.63
2022-10-14T10:31:36.584Z,2.47
2022-10-14T10:37:26.032Z,2.40
2022-10-14T10:43:03.552Z,2.23
2022-10-14T10:48:21.447Z,2.57
2022-10-14T10:53:41.127Z,2.30
2022-10-14T11:05:10.935Z,3.53
2022-10-14T11:10:31.811Z,3.17
2022-10-14T11:15:56.172Z,2.47
2022-10-14T11:21:22.183Z,3.20
2022-10-14T11:32:23.513Z,3.63
2022-10-14T11:37:32.813Z,3.73
2022-10-14T11:43:40.770Z,2.50
2022-10-14T11:49:13.276Z,2.93
2022-10-14T11:54:27.723Z,4.43
2022-10-14T11:59:55.671Z,2.60
2022-10-14T12:05:31.197Z,4.20
2022-10-14T12:11:18.632Z,2.10
2022-10-14T12:16:56.917Z,3.00
2022-10-14T12:22:33.540Z,2.87
2022-10-14T12:27:51.985Z,2.20
2022-10-14T12:33:31.361Z,2.63
2022-10-14T12:45:12.598Z,2.43
2022-10-14T12:50:14.696Z,2.67
2022-10-14T12:55:33.526Z,2.80
2022-10-14T13:00:55.517Z,2.60
2022-10-14T13:06:04.534Z,2.30
2022-10-14T13:11:54.225Z,2.57
2022-10-14T13:17:38.777Z,2.57
2022-10-14T13:22:50.229Z,2.50
2022-10-14T13:35:06.072Z,2.07
2022-10-14T13:40:28.074Z,2.30
2022-10-14T13:46:19.071Z,1.77
2022-10-14T13:53:10.721Z,2.30
2022-10-14T13:59:44.200Z,2.17
2022-10-14T14:04:22.715Z,2.00
2022-10-14T14:15:37.762Z,2.30
2022-10-14T14:28:08.265Z,2.40
2022-10-14T14:33:24.814Z,2.23
2022-10-14T14:39:08.821Z,2.20
2022-10-14T14:44:26.090Z,2.60
2022-10-14T14:50:18.375Z,2.67
2022-10-14T14:55:23.089Z,1.67
2022-10-14T15:01:25.267Z,3.40
2022-10-14T15:06:20.172Z,1.73
2022-10-14T15:11:06.703Z,1.93
2022-10-14T15:15:54.172Z,2.10
2022-10-14T15:20:38.506Z,2.47
2022-10-14T15:31:40.596Z,3.40
2022-10-14T15:43:55.097Z,4.47
2022-10-14T15:55:08.493Z,3.30
2022-10-14T16:00:24.045Z,2.40
2022-10-14T16:06:31.809Z,2.93
2022-10-14T16:11:54.950Z,2.83
2022-10-14T16:17:56.699Z,4.50
2022-10-14T16:23:33.344Z,7.90
2022-10-14T16:28:53.551Z,8.67
2022-10-14T16:34:19.304Z,9.77
2022-10-14T16:39:04.050Z,9.90
2022-10-14T16:43:51.012Z,8.90
2022-10-14T16:48:38.704Z,14.90
2022-10-14T16:53:45.375Z,12.80
2022-10-14T16:58:30.271Z,10.47
2022-10-14T17:03:18.040Z,9.00
2022-10-14T17:08:07.158Z,9.17
2022-10-14T17:12:58.728Z,8.93
2022-10-14T17:17:44.042Z,11.50
2022-10-14T17:22:31.304Z,9.17
2022-10-14T17:27:19.452Z,10.40
2022-10-14T17:32:05.485Z,18.80
2022-10-14T17:36:59.631Z,12.67
2022-10-14T17:41:43.169Z,10.30
2022-10-14T17:46:32.297Z,12.33
2022-10-14T17:51:20.335Z,12.70
2022-10-14T17:56:12.147Z,14.53
2022-10-14T18:00:55.608Z,14.23
2022-10-14T18:05:48.769Z,13.27
2022-10-14T18:11:08.514Z,14.73
2022-10-14T18:16:10.160Z,14.47
2022-10-14T18:20:57.121Z,15.73
2022-10-14T18:25:42.169Z,15.03
2022-10-14T18:30:29.257Z,17.47
2022-10-14T18:35:20.836Z,14.27
2022-10-14T18:40:08.941Z,17.90
2022-10-14T18:44:59.372Z,18.03
2022-10-14T18:49:43.212Z,24.20
2022-10-14T18:54:35.537Z,18.93
2022-10-14T19:00:51.079Z,19.40
2022-10-14T19:11:04.608Z,24.20
2022-10-14T19:16:42.802Z,22.27
2022-10-14T19:21:30.109Z,23.23
2022-10-14T19:26:18.294Z,23.80
2022-10-14T19:37:27.561Z,20.90
2022-10-14T19:43:30.968Z,21.27
2022-10-14T20:08:19.016Z,28.13
2022-10-14T20:13:12.871Z,24.53
2022-10-14T20:18:04.125Z,24.13
2022-10-14T20:23:02.990Z,24.17
2022-10-14T20:28:19.935Z,24.40
2022-10-14T20:33:33.028Z,22.10
2022-10-14T20:38:51.068Z,23.27
2022-10-14T20:44:23.880Z,18.83
2022-10-14T20:49:41.206Z,21.87
2022-10-14T20:54:31.901Z,16.23
2022-10-14T20:59:50.760Z,17.63
2022-10-14T21:05:28.200Z,16.33
2022-10-14T21:10:32.493Z,16.53
2022-10-14T21:15:52.873Z,15.40
2022-10-14T21:21:00.863Z,14.40
2022-10-14T21:31:35.647Z,12.20
2022-10-14T21:36:25.171Z,18.80
2022-10-14T21:41:32.787Z,10.83
2022-10-14T21:46:31.893Z,10.43
2022-10-14T21:52:02.586Z,7.83
2022-10-14T21:56:59.153Z,8.30
2022-10-14T22:02:04.877Z,8.03
2022-10-14T22:07:33.107Z,9.27
2022-10-14T22:12:39.548Z,7.20
2022-10-14T22:17:31.443Z,7.80
2022-10-14T22:22:20.317Z,8.83
2022-10-14T22:27:04.191Z,8.37
2022-10-14T22:31:53.232Z,9.23
2022-10-14T22:37:12.213Z,7.13
2022-10-14T22:42:04.044Z,9.87
2022-10-14T22:46:49.076Z,8.33
2022-10-14T22:51:39.763Z,8.07
2022-10-14T22:56:27.800Z,7.80
2022-10-14T23:01:31.071Z,8.60
2022-10-14T23:06:32.163Z,9.90
2022-10-14T23:11:33.324Z,7.67
2022-10-14T23:16:24.517Z,7.53
2022-10-14T23:21:32.089Z,8.53
2022-10-14T23:26:17.914Z,10.00
2022-10-14T23:31:02.500Z,10.10
2022-10-14T23:35:56.928Z,7.97
2022-10-14T23:41:02.552Z,9.13
2022-10-14T23:46:01.400Z,8.90
2022-10-14T23:50:51.766Z,10.10
2022-10-14T23:55:53.686Z,12.57
